Skip Navigation Links Skip Navigation Links

Current Weather

Ronald Reagan Washington National, Washington

For information only: do not use for flight planning or navigation.
Latest weather
Observation time Wednesday, December 13, 2017 8:52 PM EST
Local time Wednesday, December 13, 2017 9:06 PM EST
Flight conditions Visual Meteorological Conditions
Winds
Wind direction South (170°)
Wind speed 13 mph
Visibility 9 mi.
Sky condition
Ceiling 5,500 ft. broken clouds
Cloud layer broken clouds 5,500 ft.
Cloud layer overcast 7,000 ft.
Temperature 35°F
Dewpoint 15°F
Altimeter 29.66 in.Hg
Precipitation
Snow ended 8:51 PM
Precipitation last hour trace
Derived measurements
Relative humidity 43%
Wind chill 26°F
Density altitude -1249 ft.
Sea-level pressure 29.65 in.Hg
Remarks
Automated weather observing station with precipitation discriminator.
Pressure falling rapidly.
METAR KDCA 140152Z 17011KT 9SM BKN055 OVC070 02/M09 A2966 RMK AO2 SNE51 PRESFR SLP041 P0000 T00171094

Settings

Location code

InnerDrive.Weather 4.0.6144.1 Release CLR 4.0.30319.36366
Copyright ©2015 Inner Drive Technology. All rights reserved. Portions Copyright ©1986-2015 David Braverman.

Find weather

Site navigation


Skip Navigation Links

Place info

Page info

PayPal - The safer, easier way to pay online!

Return home.

Copyright ©2017 Inner Drive Technology. Purveyors of fine, hand-crafted computer software. Page printed 2017-12-14T02:06:53 UTC.